Time;durP1;ratioP1;P1;durP2;ratioP2;P2;SDS_P1;SDS_P2;PMS_P1;PMS_P2;Temp;Humidity;BMP_temperature;BMP_pressure;BME280_temperature;BME280_humidity;BME280_pressure;Samples;Min_cycle;Max_cycle;Signal;HPM_P1;HPM_P2
2023/05/24 00:00:18;;;;;;;1.05;1.05;;;;;;;13.94;100.00;96680.09;5106363;28;20486;-63
2023/05/24 00:02:45;;;;;;;1.10;1.10;;;;;;;14.08;98.44;96691.19;5106067;28;20058;-63
2023/05/24 00:05:15;;;;;;;1.10;1.10;;;;;;;14.00;98.38;96693.19;5065167;28;20056;-63
2023/05/24 00:07:42;;;;;;;1.10;1.10;;;;;;;14.09;98.95;96687.19;5065501;28;20529;-63
2023/05/24 00:10:09;;;;;;;1.20;1.20;;;;;;;14.18;97.97;96695.94;5065659;28;20132;-62
2023/05/24 00:12:36;;;;;;;1.20;1.20;;;;;;;13.88;98.40;96653.84;5065479;28;20052;-63
2023/05/24 00:15:03;;;;;;;1.20;1.20;;;;;;;14.14;99.00;96684.00;5064128;28;20055;-62
2023/05/24 00:17:30;;;;;;;1.10;1.10;;;;;;;13.97;98.75;96676.50;5065771;28;20052;-63
2023/05/24 00:19:57;;;;;;;1.20;1.20;;;;;;;14.01;97.99;96693.97;5065291;28;20586;-63
2023/05/24 00:22:23;;;;;;;1.20;1.20;;;;;;;14.02;97.90;96681.66;5063941;28;20064;-62
2023/05/24 00:24:50;;;;;;;1.15;1.15;;;;;;;13.96;97.88;96678.47;5064161;28;20048;-62
2023/05/24 00:27:17;;;;;;;1.20;1.20;;;;;;;13.95;97.62;96670.53;5065110;28;20049;-64
2023/05/24 00:29:44;;;;;;;1.08;1.08;;;;;;;11.66;98.16;96330.72;5063553;28;20102;-63
2023/05/24 00:32:11;;;;;;;1.13;1.13;;;;;;;13.53;97.90;96615.75;5065029;28;20052;-64
2023/05/24 00:34:37;;;;;;;1.10;1.10;;;;;;;13.76;98.86;96673.75;5063594;28;20075;-62
2023/05/24 00:37:04;;;;;;;1.00;1.00;;;;;;;13.81;98.68;96673.34;5064708;28;20070;-64
2023/05/24 00:39:31;;;;;;;1.10;1.10;;;;;;;13.82;97.80;96669.34;5064867;28;20338;-64
2023/05/24 00:41:57;;;;;;;1.00;1.00;;;;;;;13.76;98.57;96657.03;5064810;28;20063;-62
2023/05/24 00:44:24;;;;;;;1.00;1.00;;;;;;;13.56;100.00;96688.06;5064779;28;20056;-62
2023/05/24 00:46:51;;;;;;;1.10;1.10;;;;;;;13.62;100.00;96663.44;5064597;28;20048;-62
2023/05/24 00:49:18;;;;;;;1.00;1.00;;;;;;;13.10;99.30;96575.25;5064872;28;20049;-62
2023/05/24 00:51:45;;;;;;;1.15;1.15;;;;;;;13.78;98.65;96671.34;5080090;28;20541;-62
2023/05/24 00:54:13;;;;;;;1.20;1.20;;;;;;;13.82;98.35;96661.00;5064598;28;20052;-62
2023/05/24 00:56:42;;;;;;;1.13;1.13;;;;;;;13.93;97.40;96672.91;5079587;28;20558;-62
2023/05/24 00:59:09;;;;;;;1.17;1.17;;;;;;;13.85;97.61;96677.69;5063170;28;20516;-64
2023/05/24 01:01:36;;;;;;;0.90;0.90;;;;;;;13.75;98.11;96666.59;5062854;28;20048;-63
2023/05/24 01:04:04;;;;;;;1.10;1.10;;;;;;;13.68;99.56;96673.75;5094849;27;20094;-62
2023/05/24 01:06:48;;;;;;;1.10;1.10;;;;;;;13.54;99.36;96684.91;5104905;28;20047;-62
2023/05/24 01:09:33;;;;;;;1.10;1.10;;;;;;;13.37;99.29;96680.13;5103471;28;20055;-62
2023/05/24 01:12:25;;;;;;;1.17;1.17;;;;;;;13.36;99.07;96686.06;5104656;28;20063;-61
2023/05/24 01:15:21;;;;;;;0.98;0.98;;;;;;;13.42;97.27;96676.94;5105245;28;20051;-61
2023/05/24 01:18:12;;;;;;;1.00;1.00;;;;;;;13.26;98.59;96679.31;5100161;28;20124;-62
2023/05/24 01:20:40;;;;;;;1.00;1.00;;;;;;;13.27;99.05;96680.94;5104634;28;20521;-63
2023/05/24 01:23:46;;;;;;;1.20;1.20;;;;;;;13.17;98.53;96681.69;5104431;28;20056;-63
2023/05/24 01:26:31;;;;;;;1.00;1.00;;;;;;;13.04;98.93;96677.69;5104859;28;20142;-61
2023/05/24 01:28:59;;;;;;;1.10;1.10;;;;;;;13.03;98.56;96684.47;5103058;28;20087;-63
2023/05/24 01:31:26;;;;;;;1.05;1.05;;;;;;;13.02;100.00;96680.09;5104583;28;20078;-63
2023/05/24 01:33:53;;;;;;;1.00;1.00;;;;;;;13.08;99.34;96680.50;5103199;28;20064;-63
2023/05/24 01:36:20;;;;;;;1.00;1.00;;;;;;;13.11;99.29;96683.28;5104337;28;20510;-62
2023/05/24 01:38:48;;;;;;;1.10;1.10;;;;;;;13.15;99.45;96684.06;5104269;28;20056;-63
2023/05/24 01:41:26;;;;;;;1.05;1.05;;;;;;;13.12;99.64;96679.31;5103040;28;20130;-63
2023/05/24 01:44:14;;;;;;;1.00;1.00;;;;;;;13.11;100.00;96683.28;5104204;28;20059;-62
2023/05/24 01:46:41;;;;;;;1.00;1.00;;;;;;;13.10;98.69;96692.81;5103666;28;20059;-62
2023/05/24 01:49:30;;;;;;;1.00;1.00;;;;;;;13.20;98.03;96686.47;5104500;28;20059;-63
2023/05/24 01:52:10;;;;;;;1.17;1.17;;;;;;;12.73;97.91;96622.81;5103982;28;20067;-62
2023/05/24 01:54:42;;;;;;;1.10;1.10;;;;;;;13.20;99.22;96686.47;5104572;28;20055;-63
2023/05/24 01:57:09;;;;;;;1.17;1.17;;;;;;;13.32;98.55;96688.88;5103820;28;20522;-62
2023/05/24 01:59:40;;;;;;;1.05;1.05;;;;;;;13.34;96.76;96682.91;5104071;28;20515;-62
2023/05/24 02:02:09;;;;;;;1.00;1.00;;;;;;;13.10;96.23;96645.53;5103347;28;20051;-62
2023/05/24 02:04:36;;;;;;;1.10;1.10;;;;;;;13.30;96.61;96685.69;5092648;28;20092;-63
2023/05/24 02:07:03;;;;;;;1.05;1.05;;;;;;;13.32;97.47;96683.31;5082185;28;20055;-63
2023/05/24 02:09:29;;;;;;;0.90;0.90;;;;;;;12.81;98.31;96618.06;5083960;28;20068;-62
2023/05/24 02:11:56;;;;;;;1.00;1.00;;;;;;;12.90;96.65;96624.84;5083454;28;20059;-62
2023/05/24 02:14:23;;;;;;;1.10;1.10;;;;;;;13.19;95.65;96687.66;5083780;28;20458;-62
2023/05/24 02:16:50;;;;;;;1.00;1.00;;;;;;;13.23;95.99;96685.69;5083398;28;20127;-62
2023/05/24 02:19:16;;;;;;;1.00;1.00;;;;;;;12.90;95.64;96660.97;5083895;28;20048;-63
2023/05/24 02:21:43;;;;;;;0.90;0.90;;;;;;;13.03;98.00;96681.69;5083216;28;20094;-63
2023/05/24 02:24:11;;;;;;;1.00;1.00;;;;;;;12.88;98.64;96635.53;5083445;28;20641;-62
2023/05/24 02:26:38;;;;;;;1.10;1.10;;;;;;;13.17;96.66;96692.81;5083531;28;20497;-63
2023/05/24 02:29:04;;;;;;;1.00;1.00;;;;;;;13.14;97.65;96690.03;5083755;28;20485;-62
2023/05/24 02:31:31;;;;;;;1.00;1.00;;;;;;;13.07;98.29;96688.03;5082153;28;20048;-62
2023/05/24 02:33:58;;;;;;;1.00;1.00;;;;;;;13.09;96.86;96680.09;5083742;28;20079;-63
2023/05/24 02:36:24;;;;;;;1.00;1.00;;;;;;;13.01;97.45;96672.94;5083263;28;20048;-63
2023/05/24 02:38:51;;;;;;;0.90;0.90;;;;;;;12.95;97.36;96682.84;5083670;28;20067;-61
2023/05/24 02:41:18;;;;;;;1.05;1.05;;;;;;;12.76;96.88;96672.06;5082202;28;20525;-61
2023/05/24 02:43:46;;;;;;;0.90;0.90;;;;;;;12.17;100.00;96639.34;5083567;28;20047;-63
2023/05/24 02:46:13;;;;;;;1.00;1.00;;;;;;;12.78;100.00;96697.50;5083382;28;20052;-62
2023/05/24 02:48:40;;;;;;;0.90;0.90;;;;;;;11.92;100.00;96705.81;5082115;28;20052;-61
2023/05/24 02:51:07;;;;;;;1.00;1.00;;;;;;;12.29;100.00;96702.84;5081918;28;20083;-62
2023/05/24 02:53:34;;;;;;;1.00;1.00;;;;;;;12.44;100.00;96687.84;5082232;28;20075;-62
2023/05/24 02:56:00;;;;;;;1.00;1.00;;;;;;;12.33;100.00;96653.66;5080477;28;20058;-62
2023/05/24 02:58:27;;;;;;;0.98;0.98;;;;;;;12.23;100.00;96632.22;5084529;28;20048;-63
2023/05/24 03:00:54;;;;;;;0.90;0.90;;;;;;;12.75;100.00;96701.06;5086472;28;20575;-63
2023/05/24 03:03:21;;;;;;;0.90;0.90;;;;;;;12.94;99.68;96697.94;5087680;28;20063;-63
2023/05/24 03:05:48;;;;;;;1.08;1.08;;;;;;;12.94;100.00;96683.22;5107339;28;20510;-64
2023/05/24 03:08:15;;;;;;;1.00;1.00;;;;;;;12.83;100.00;96690.75;5107090;28;20055;-63
2023/05/24 03:10:42;;;;;;;1.00;1.00;;;;;;;12.88;97.83;96713.38;5107306;28;20054;-62
2023/05/24 03:13:09;;;;;;;0.90;0.90;;;;;;;12.74;99.97;96696.66;5106710;28;20090;-62
2023/05/24 03:15:36;;;;;;;1.00;1.00;;;;;;;12.08;100.00;96592.50;5105795;28;20047;-62
2023/05/24 03:18:02;;;;;;;0.90;0.90;;;;;;;12.82;98.85;96703.84;5106877;28;20548;-62
2023/05/24 03:20:29;;;;;;;1.10;1.10;;;;;;;12.72;99.47;96703.81;5107579;28;20059;-62
2023/05/24 03:22:56;;;;;;;1.00;1.00;;;;;;;12.09;100.00;96615.50;5105663;28;20047;-63
2023/05/24 03:25:23;;;;;;;1.00;1.00;;;;;;;12.69;98.17;96733.19;5107137;28;20472;-63
2023/05/24 03:27:50;;;;;;;1.10;1.10;;;;;;;12.67;99.64;96701.41;5107148;28;20056;-62
2023/05/24 03:30:16;;;;;;;1.00;1.00;;;;;;;12.79;100.00;96703.81;5106865;28;20059;-62
2023/05/24 03:32:43;;;;;;;1.00;1.00;;;;;;;12.90;98.23;96711.00;5105579;28;20824;-62
2023/05/24 03:35:10;;;;;;;1.00;1.00;;;;;;;13.10;98.19;96703.94;5106449;28;20066;-62
2023/05/24 03:37:37;;;;;;;0.98;0.98;;;;;;;13.05;98.62;96721.03;5099387;28;20144;-62
2023/05/24 03:40:05;;;;;;;0.90;0.90;;;;;;;13.22;96.37;96716.66;5066092;28;20408;-63
2023/05/24 03:42:32;;;;;;;1.10;1.10;;;;;;;13.30;96.60;96707.94;5065833;28;20063;-64
2023/05/24 03:44:58;;;;;;;1.00;1.00;;;;;;;13.44;96.44;96702.38;5065990;28;20048;-63
2023/05/24 03:47:25;;;;;;;1.02;1.02;;;;;;;13.66;95.34;96709.53;5065699;28;20044;-63
2023/05/24 03:49:52;;;;;;;1.15;1.15;;;;;;;13.82;92.62;96711.91;5065602;28;20102;-62
2023/05/24 03:52:18;;;;;;;1.10;1.10;;;;;;;13.95;92.33;96710.31;5066091;28;20127;-63
2023/05/24 03:54:45;;;;;;;0.98;0.98;;;;;;;14.08;91.50;96708.69;5065711;28;20051;-62
2023/05/24 03:57:12;;;;;;;1.00;1.00;;;;;;;14.25;91.36;96718.22;5065673;28;20060;-62
2023/05/24 03:59:38;;;;;;;1.20;1.20;;;;;;;14.42;89.86;96728.53;5065517;28;20422;-63
2023/05/24 04:02:07;;;;;;;1.10;1.10;;;;;;;14.26;91.23;96731.75;5080154;28;20207;-65
2023/05/24 04:04:35;;;;;;;1.05;1.05;;;;;;;14.46;91.16;96732.13;5079438;28;20572;-63
2023/05/24 04:07:02;;;;;;;1.23;1.23;;;;;;;14.68;90.39;96719.69;5106166;28;20055;-63
2023/05/24 04:09:29;;;;;;;1.30;1.30;;;;;;;14.81;89.52;96720.81;5106287;28;20051;-63
2023/05/24 04:11:55;;;;;;;1.10;1.10;;;;;;;14.33;89.06;96689.16;5105907;28;20055;-63
2023/05/24 04:14:22;;;;;;;1.20;1.20;;;;;;;14.58;90.03;96738.03;5105912;28;20057;-64
2023/05/24 04:16:49;;;;;;;1.30;1.30;;;;;;;14.84;89.59;96733.97;5105693;27;20427;-63
2023/05/24 04:19:15;;;;;;;1.35;1.35;;;;;;;15.03;88.65;96736.25;5105952;28;20058;-62
2023/05/24 04:21:43;;;;;;;1.20;1.20;;;;;;;14.96;88.33;96742.66;5105654;28;20100;-63
2023/05/24 04:24:10;;;;;;;1.40;1.40;;;;;;;15.06;87.50;96736.22;5105324;28;20074;-64
2023/05/24 04:26:37;;;;;;;1.20;1.20;;;;;;;15.17;86.31;96775.22;5105636;28;20059;-62
2023/05/24 04:29:03;;;;;;;1.40;1.40;;;;;;;14.84;86.71;96700.50;5104170;28;20126;-63
2023/05/24 04:31:32;;;;;;;1.23;1.23;;;;;;;15.37;85.81;96742.81;5105090;28;20533;-64
2023/05/24 04:33:59;;;;;;;1.30;1.30;;;;;;;15.21;85.12;96681.13;5105153;28;20060;-64
2023/05/24 04:36:25;;;;;;;1.30;1.30;;;;;;;15.72;83.50;96734.22;5104945;28;20139;-64
2023/05/24 04:38:52;;;;;;;1.20;1.20;;;;;;;15.86;82.02;96739.69;5104106;28;20492;-63
2023/05/24 04:41:21;;;;;;;1.40;1.40;;;;;;;15.54;81.28;96688.88;5105205;28;20059;-63
2023/05/24 04:43:47;;;;;;;1.40;1.40;;;;;;;15.81;82.18;96737.31;5103967;28;20428;-63
2023/05/24 04:46:14;;;;;;;1.35;1.35;;;;;;;15.94;81.54;96735.63;5104953;28;20055;-62
2023/05/24 04:48:42;;;;;;;1.60;1.60;;;;;;;16.08;82.20;96735.50;5104679;27;20079;-62
2023/05/24 04:51:09;;;;;;;1.40;1.40;;;;;;;16.29;81.07;96738.09;5103304;28;20044;-62
2023/05/24 04:53:36;;;;;;;1.50;1.50;;;;;;;16.23;80.99;96736.94;5104902;28;20411;-63
2023/05/24 04:56:02;;;;;;;1.70;1.70;;;;;;;16.12;80.91;96691.53;5104878;28;20135;-63
2023/05/24 04:58:29;;;;;;;1.48;1.48;;;;;;;16.44;80.27;96733.94;5094123;28;20507;-63
2023/05/24 05:00:56;;;;;;;1.58;1.58;;;;;;;15.92;80.90;96648.63;5068489;28;20036;-62
2023/05/24 05:03:22;;;;;;;1.50;1.50;;;;;;;16.80;79.36;96741.94;5073675;28;20052;-60
2023/05/24 05:05:50;;;;;;;1.58;1.58;;;;;;;16.79;79.96;96734.78;5074820;28;20400;-60
2023/05/24 05:08:17;;;;;;;1.60;1.60;;;;;;;16.89;79.78;96733.81;5080011;28;20052;-59
2023/05/24 05:10:43;;;;;;;1.40;1.40;;;;;;;15.62;79.07;96561.97;5084191;28;20333;-58
2023/05/24 05:13:10;;;;;;;1.58;1.58;;;;;;;16.28;78.72;96605.09;5084199;28;20083;-59
2023/05/24 05:15:37;;;;;;;1.40;1.40;;;;;;;17.42;77.80;96733.91;5083969;28;20531;-63
2023/05/24 05:18:03;;;;;;;1.70;1.70;;;;;;;17.60;76.75;96740.84;5083984;28;20048;-62
2023/05/24 05:20:30;;;;;;;1.65;1.65;;;;;;;17.78;75.61;96740.59;5083926;28;20454;-63
2023/05/24 05:22:57;;;;;;;1.70;1.70;;;;;;;17.93;73.43;96741.91;5084041;28;20059;-61
2023/05/24 05:25:23;;;;;;;1.80;1.80;;;;;;;17.44;71.38;96653.06;5084369;28;20091;-63
2023/05/24 05:27:50;;;;;;;1.70;1.70;;;;;;;17.62;72.80;96699.22;5084071;28;20052;-59
2023/05/24 05:30:17;;;;;;;1.77;1.77;;;;;;;18.13;73.22;96739.19;5084164;28;20515;-62
2023/05/24 05:32:43;;;;;;;1.63;1.63;;;;;;;18.21;72.60;96738.63;5082610;28;20481;-61
2023/05/24 05:35:10;;;;;;;1.80;1.80;;;;;;;18.52;72.06;96740.09;5082364;28;20056;-59
2023/05/24 05:37:37;;;;;;;1.88;1.88;;;;;;;18.17;71.26;96695.84;5075761;28;20048;-59
2023/05/24 05:40:04;;;;;;;1.90;1.90;;;;;;;18.30;72.77;96705.22;5083973;28;20043;-57
2023/05/24 05:42:30;;;;;;;1.73;1.73;;;;;;;18.44;71.12;96716.22;5083953;28;20083;-60
2023/05/24 05:44:57;;;;;;;1.88;1.88;;;;;;;18.29;71.62;96686.81;5082445;28;20051;-63
2023/05/24 05:47:24;;;;;;;1.75;1.75;;;;;;;18.36;73.27;96754.00;5082318;28;20143;-58
2023/05/24 05:49:51;;;;;;;1.92;1.92;;;;;;;18.47;72.63;96715.34;5082365;28;20139;-59
2023/05/24 05:52:17;;;;;;;1.70;1.70;;;;;;;17.96;74.76;96707.44;5083739;28;20071;-59
2023/05/24 05:54:44;;;;;;;1.70;1.70;;;;;;;17.97;73.05;96624.97;5083672;28;20056;-59
2023/05/24 05:57:11;;;;;;;2.10;2.10;;;;;;;18.86;72.41;96765.88;5083952;28;20055;-61
2023/05/24 05:59:38;;;;;;;1.70;1.70;;;;;;;18.89;71.49;96742.56;5073094;28;20726;-61
2023/05/24 06:02:05;;;;;;;1.90;1.90;;;;;;;18.87;68.63;96727.41;5062905;28;20056;-62
2023/05/24 06:04:34;;;;;;;2.10;2.10;;;;;;;18.40;67.91;96639.75;5069144;28;20110;-62
2023/05/24 06:07:00;;;;;;;1.67;1.67;;;;;;;19.16;67.65;96768.47;5062175;28;20152;-59
2023/05/24 06:09:27;;;;;;;1.80;1.80;;;;;;;19.52;66.62;96762.94;5073250;28;20051;-62
2023/05/24 06:11:54;;;;;;;1.80;1.80;;;;;;;19.64;67.14;96751.00;5068130;28;20051;-57
2023/05/24 06:14:21;;;;;;;1.80;1.80;;;;;;;19.65;67.28;96777.09;5062152;28;20498;-57
2023/05/24 06:16:48;;;;;;;2.08;2.08;;;;;;;19.41;64.82;96712.56;5066137;28;20094;-61
2023/05/24 06:19:15;;;;;;;2.10;2.10;;;;;;;19.98;64.18;96767.47;5067040;28;20102;-59
2023/05/24 06:21:46;;;;;;;1.92;1.92;;;;;;;19.57;63.91;96686.50;5065231;28;20086;-59
2023/05/24 06:24:14;;;;;;;2.10;2.10;;;;;;;20.15;64.63;96766.28;5069684;28;20102;-60
2023/05/24 06:26:41;;;;;;;2.05;2.05;;;;;;;20.21;64.64;96770.94;5077188;28;20058;-60
2023/05/24 06:29:08;;;;;;;1.90;1.90;;;;;;;20.15;65.02;96724.06;5073314;28;20048;-60
2023/05/24 06:31:35;;;;;;;2.03;2.03;;;;;;;18.81;66.29;96572.72;5069563;28;20140;-61
2023/05/24 06:34:02;;;;;;;2.22;2.22;;;;;;;20.44;65.12;96756.66;5069312;28;20052;-59
2023/05/24 06:36:41;;;;;;;1.95;1.95;;;;;;;20.73;64.53;96767.94;5070713;28;20048;-61
2023/05/24 06:39:09;;;;;;;2.17;2.17;;;;;;;21.01;63.15;96767.19;5067713;28;20062;-58
2023/05/24 06:41:37;;;;;;;2.15;2.15;;;;;;;21.12;64.66;96762.03;5077043;28;20055;-61
2023/05/24 06:44:05;;;;;;;1.98;1.98;;;;;;;20.74;65.60;96761.88;5072685;28;20061;-58
2023/05/24 06:46:32;;;;;;;2.20;2.20;;;;;;;20.64;66.26;96708.69;5076226;28;20055;-60
2023/05/24 06:48:59;;;;;;;2.30;2.30;;;;;;;21.24;65.60;96750.03;5080963;28;21977;-59
2023/05/24 06:51:26;;;;;;;2.20;2.20;;;;;;;21.60;64.86;96753.34;5072661;28;20110;-63
2023/05/24 06:53:53;;;;;;;2.20;2.20;;;;;;;21.95;63.46;96745.84;5074896;28;20100;-57
2023/05/24 06:56:20;;;;;;;2.30;2.30;;;;;;;22.30;59.96;96736.19;5086120;28;20105;-58
2023/05/24 06:58:47;;;;;;;2.50;2.40;;;;;;;22.57;58.48;96741.34;5078585;28;20607;-59
2023/05/24 07:01:14;;;;;;;2.45;2.35;;;;;;;22.21;56.51;96646.59;5084518;28;20079;-64
2023/05/24 07:03:41;;;;;;;2.42;2.33;;;;;;;23.02;55.88;96745.34;5085626;28;20047;-59
2023/05/24 07:06:11;;;;;;;2.67;2.58;;;;;;;23.29;55.54;96741.94;5084665;28;20067;-64
2023/05/24 07:08:37;;;;;;;2.60;2.50;;;;;;;23.48;56.83;96744.44;5085531;28;20081;-59
2023/05/24 07:11:05;;;;;;;2.80;2.70;;;;;;;23.33;55.57;96743.38;5083810;28;20052;-58
2023/05/24 07:13:31;;;;;;;2.90;2.80;;;;;;;23.55;54.91;96738.50;5082864;28;20148;-64
2023/05/24 07:15:58;;;;;;;2.60;2.50;;;;;;;23.75;54.69;96746.63;5082705;28;20052;-64
2023/05/24 07:18:25;;;;;;;2.65;2.55;;;;;;;23.02;56.78;96733.25;5084486;28;20602;-60
2023/05/24 07:20:53;;;;;;;2.70;2.60;;;;;;;23.22;57.06;96736.56;5083251;28;20048;-64
2023/05/24 07:23:20;;;;;;;2.70;2.60;;;;;;;23.34;55.62;96693.31;5082645;28;20131;-64
2023/05/24 07:25:47;;;;;;;3.00;2.90;;;;;;;23.64;54.25;96735.75;5085356;28;20433;-59
2023/05/24 07:28:14;;;;;;;2.78;2.67;;;;;;;23.88;53.58;96739.59;5083604;28;20078;-64
2023/05/24 07:30:40;;;;;;;3.00;2.90;;;;;;;24.05;53.20;96731.69;5084584;28;20067;-63
2023/05/24 07:33:07;;;;;;;2.90;2.80;;;;;;;23.97;53.61;96702.09;5084674;28;20052;-64
2023/05/24 07:35:34;;;;;;;2.90;2.80;;;;;;;23.97;53.67;96738.09;5085012;28;20093;-59
2023/05/24 07:38:01;;;;;;;2.80;2.70;;;;;;;23.88;52.27;96670.94;5086149;28;20054;-60
2023/05/24 07:40:27;;;;;;;2.92;2.83;;;;;;;24.60;51.29;96738.25;5085898;28;20074;-59
2023/05/24 07:42:54;;;;;;;2.83;2.72;;;;;;;23.88;51.87;96733.16;5085491;28;20052;-64
2023/05/24 07:45:21;;;;;;;2.78;2.67;;;;;;;23.67;52.01;96745.31;5085124;28;20055;-62
2023/05/24 07:47:48;;;;;;;2.90;2.80;;;;;;;23.93;50.64;96738.22;5086137;28;20071;-59
2023/05/24 07:50:15;;;;;;;2.70;2.60;;;;;;;24.16;51.82;96732.03;5085664;28;20060;-63
2023/05/24 07:52:42;;;;;;;3.10;3.00;;;;;;;24.46;51.11;96742.50;5084396;28;20127;-63
2023/05/24 07:55:09;;;;;;;2.80;2.70;;;;;;;24.45;51.91;96749.44;5083773;28;20138;-60
2023/05/24 07:57:36;;;;;;;2.90;2.80;;;;;;;24.56;48.83;96715.78;5085322;28;20139;-64
2023/05/24 08:00:09;;;;;;;3.00;2.90;;;;;;;24.91;49.11;96734.06;5085598;28;20056;-64
2023/05/24 08:02:36;;;;;;;2.90;2.80;;;;;;;24.31;48.49;96737.91;5085239;28;20528;-58
2023/05/24 08:05:03;;;;;;;2.85;2.75;;;;;;;24.10;49.82;96708.44;5089254;28;20062;-59
2023/05/24 08:07:30;;;;;;;3.30;3.20;;;;;;;23.93;48.60;96738.22;5105619;28;20074;-60
2023/05/24 08:09:57;;;;;;;2.78;2.67;;;;;;;24.14;49.93;96728.09;5105556;28;20256;-57
2023/05/24 08:12:24;;;;;;;2.75;2.65;;;;;;;24.41;47.25;96737.44;5105755;28;20097;-63
2023/05/24 08:14:51;;;;;;;3.03;2.92;;;;;;;24.19;48.06;96714.13;5105866;28;20882;-62
2023/05/24 08:17:18;;;;;;;2.88;2.78;;;;;;;24.52;47.87;96720.78;5105248;28;20047;-60
2023/05/24 08:19:45;;;;;;;3.30;3.20;;;;;;;24.86;46.92;96705.56;5105823;28;20059;-60
2023/05/24 08:22:11;;;;;;;2.90;2.80;;;;;;;24.07;47.79;96694.44;5105181;28;20051;-63
2023/05/24 08:24:38;;;;;;;3.17;3.08;;;;;;;24.02;48.40;96735.47;5105376;28;20059;-64
2023/05/24 08:27:06;;;;;;;3.00;2.90;;;;;;;24.07;47.49;96723.53;5103803;28;20042;-58
2023/05/24 08:29:34;;;;;;;2.78;2.67;;;;;;;24.12;47.84;96737.06;5063251;28;20490;-64
2023/05/24 08:32:01;;;;;;;2.95;2.85;;;;;;;24.18;48.25;96735.19;5063865;28;20059;-59
2023/05/24 08:34:28;;;;;;;3.20;3.10;;;;;;;24.42;48.60;96736.19;5064523;28;20060;-60
2023/05/24 08:36:55;;;;;;;3.08;2.97;;;;;;;24.81;45.18;96709.84;5064413;28;20462;-62
2023/05/24 08:39:22;;;;;;;3.10;3.00;;;;;;;25.14;46.05;96727.78;5064797;28;20442;-61
2023/05/24 08:41:50;;;;;;;3.13;3.03;;;;;;;25.38;46.36;96727.91;5063857;28;20383;-65
2023/05/24 08:44:44;;;;;;;3.83;3.72;;;;;;;25.89;43.90;96699.53;5064503;28;20118;-63
2023/05/24 08:47:12;;;;;;;3.70;3.60;;;;;;;25.88;43.78;96741.31;5079584;28;20081;-60
2023/05/24 08:49:41;;;;;;;3.40;3.30;;;;;;;25.90;44.10;96678.41;5082675;28;20067;-60
2023/05/24 08:52:10;;;;;;;3.60;3.50;;;;;;;26.08;42.62;96737.97;5075776;28;20107;-58
2023/05/24 08:54:37;;;;;;;3.63;3.53;;;;;;;26.14;42.15;96682.09;5079577;28;20059;-63
2023/05/24 08:57:05;;;;;;;3.53;3.42;;;;;;;26.73;41.07;96742.84;5083691;28;20370;-59
2023/05/24 08:59:32;;;;;;;3.80;3.70;;;;;;;26.98;41.39;96733.78;5084578;28;20051;-60
2023/05/24 09:02:01;;;;;;;3.65;3.55;;;;;;;27.07;41.23;96734.50;5082177;28;20044;-60
2023/05/24 09:04:29;;;;;;;3.80;3.70;;;;;;;27.20;41.71;96737.88;5082529;28;20545;-61
2023/05/24 09:06:57;;;;;;;3.88;3.78;;;;;;;26.68;41.29;96693.13;5064319;28;20051;-60
2023/05/24 09:09:27;;;;;;;4.07;3.97;;;;;;;26.47;42.14;96725.44;5070863;28;20066;-59
2023/05/24 09:11:57;;;;;;;3.67;3.58;;;;;;;26.27;43.13;96728.88;5062047;28;20105;-61
2023/05/24 09:14:24;;;;;;;3.20;3.10;;;;;;;26.79;42.08;96712.47;5065090;28;20076;-59
2023/05/24 09:16:51;;;;;;;3.55;3.45;;;;;;;27.06;41.19;96735.78;5077001;28;20039;-63
2023/05/24 09:19:18;;;;;;;3.83;3.72;;;;;;;26.58;42.29;96742.75;5062198;28;20051;-59
2023/05/24 09:21:48;;;;;;;3.53;3.42;;;;;;;26.40;41.51;96737.16;5059636;28;20052;-65
2023/05/24 09:24:15;;;;;;;3.50;3.40;;;;;;;26.14;42.84;96741.72;5062161;28;20113;-66
2023/05/24 09:26:42;;;;;;;3.38;3.28;;;;;;;25.89;43.21;96745.72;5061829;28;20044;-64
2023/05/24 09:29:08;;;;;;;3.42;3.33;;;;;;;26.45;42.50;96745.03;5062599;28;20071;-65
2023/05/24 09:31:37;;;;;;;4.00;3.90;;;;;;;27.00;40.47;96734.09;5062470;28;20479;-65
2023/05/24 09:34:09;;;;;;;3.80;3.70;;;;;;;26.96;40.90;96688.78;5063891;28;20061;-64
2023/05/24 09:36:41;;;;;;;4.07;3.97;;;;;;;27.65;39.83;96733.81;5063024;28;20290;-65
2023/05/24 09:39:09;;;;;;;3.78;3.67;;;;;;;27.12;40.56;96736.69;5062539;28;20228;-65
2023/05/24 09:41:36;;;;;;;3.75;3.65;;;;;;;26.49;40.98;96735.03;5061563;28;20480;-65
2023/05/24 09:44:04;;;;;;;3.80;3.70;;;;;;;26.67;41.20;96739.84;5061633;28;20458;-63
2023/05/24 09:46:37;;;;;;;3.97;3.88;;;;;;;26.63;40.45;96699.44;5062093;28;20127;-65
2023/05/24 09:49:06;;;;;;;3.53;3.42;;;;;;;26.12;42.66;96730.84;5060631;28;20587;-64
2023/05/24 09:51:37;;;;;;;3.67;3.58;;;;;;;25.62;41.80;96779.09;5062080;28;20060;-64
2023/05/24 09:54:04;;;;;;;3.70;3.60;;;;;;;25.57;43.55;96666.25;5063833;28;20052;-64
2023/05/24 09:56:34;;;;;;;3.67;3.58;;;;;;;26.11;43.28;96737.81;5064708;28;20061;-63
2023/05/24 09:59:07;;;;;;;3.75;3.65;;;;;;;26.00;41.92;96685.63;5071625;28;20137;-62
2023/05/24 10:01:34;;;;;;;3.25;3.15;;;;;;;26.06;41.44;96703.59;5067586;28;20064;-62
2023/05/24 10:04:05;;;;;;;3.92;3.83;;;;;;;26.26;42.22;96726.50;5070928;28;20407;-59
2023/05/24 10:06:37;;;;;;;3.67;3.58;;;;;;;26.18;43.31;96725.28;5080895;28;20151;-60
2023/05/24 10:09:08;;;;;;;3.40;3.30;;;;;;;25.59;42.44;96728.97;5065162;28;20052;-61
2023/05/24 10:11:36;;;;;;;3.30;3.20;;;;;;;26.25;41.29;96770.38;5065449;28;20048;-63
2023/05/24 10:14:05;;;;;;;3.72;3.63;;;;;;;26.05;41.70;96722.66;5063763;28;20048;-62
2023/05/24 10:16:32;;;;;;;3.92;3.83;;;;;;;26.10;40.45;96729.75;5062698;28;20055;-61
2023/05/24 10:18:59;;;;;;;3.53;3.42;;;;;;;25.99;41.86;96723.75;5069882;28;20048;-60
2023/05/24 10:21:28;;;;;;;3.60;3.50;;;;;;;26.44;42.42;96740.63;5069235;28;20075;-62
2023/05/24 10:23:58;;;;;;;3.75;3.65;;;;;;;26.67;41.59;96722.81;5067391;28;20145;-63
2023/05/24 10:26:30;;;;;;;3.60;3.50;;;;;;;26.58;41.29;96722.84;5065548;28;20052;-64
2023/05/24 10:29:08;;;;;;;3.40;3.30;;;;;;;26.15;41.54;96720.56;5067556;28;20054;-64
2023/05/24 10:31:38;;;;;;;3.60;3.50;;;;;;;25.96;42.62;96680.09;5067793;28;20079;-64
2023/05/24 10:34:08;;;;;;;3.53;3.42;;;;;;;25.86;42.49;96697.66;5067435;28;20066;-63
2023/05/24 10:36:38;;;;;;;3.13;3.03;;;;;;;25.31;43.41;96720.50;5067556;28;20595;-64
2023/05/24 10:39:08;;;;;;;3.50;3.40;;;;;;;26.17;41.96;96718.03;5065205;28;20048;-64
2023/05/24 10:41:39;;;;;;;3.50;3.40;;;;;;;25.87;40.75;96721.94;5066834;28;20049;-64
2023/05/24 10:44:18;;;;;;;3.47;3.38;;;;;;;26.22;39.10;96708.88;5065215;28;20082;-63
2023/05/24 10:47:09;;;;;;;3.40;3.30;;;;;;;26.43;39.41;96696.44;5067005;28;20052;-64
2023/05/24 10:49:51;;;;;;;3.53;3.42;;;;;;;26.04;40.38;96703.28;5066308;28;20052;-64
2023/05/24 10:52:18;;;;;;;3.63;3.53;;;;;;;26.70;41.25;96682.84;5065353;28;20067;-64
2023/05/24 10:55:08;;;;;;;3.60;3.50;;;;;;;27.22;40.01;96689.78;5065729;28;20051;-63
2023/05/24 10:57:37;;;;;;;3.92;3.83;;;;;;;26.52;39.97;96687.84;5065805;28;20067;-64
2023/05/24 11:00:19;;;;;;;3.72;3.63;;;;;;;26.64;39.19;96678.31;5065887;28;20059;-64
2023/05/24 11:03:02;;;;;;;4.03;3.92;;;;;;;27.02;38.85;96686.84;5066118;28;20142;-63
2023/05/24 11:05:53;;;;;;;3.70;3.60;;;;;;;27.11;38.32;96683.91;5066477;28;20581;-65
2023/05/24 11:08:28;;;;;;;3.90;3.80;;;;;;;27.19;39.82;96679.41;5083046;28;20051;-66
2023/05/24 11:11:11;;;;;;;4.00;3.90;;;;;;;27.88;38.33;96685.31;5086272;27;20060;-64
2023/05/24 11:13:42;;;;;;;4.25;4.15;;;;;;;28.10;37.83;96676.34;5066109;28;20059;-64
2023/05/24 11:16:09;;;;;;;4.22;4.13;;;;;;;27.83;38.46;96677.47;5065976;28;20040;-65
2023/05/24 11:18:38;;;;;;;4.18;4.07;;;;;;;28.04;37.63;96676.25;5063423;28;20063;-65
2023/05/24 11:21:06;;;;;;;4.20;4.10;;;;;;;27.66;38.01;96673.53;5066359;28;20049;-64
2023/05/24 11:23:34;;;;;;;4.35;4.25;;;;;;;27.98;38.10;96672.53;5065905;28;20048;-65
2023/05/24 11:26:06;;;;;;;3.50;3.40;;;;;;;27.52;39.84;96677.19;5066240;28;20782;-64
2023/05/24 11:28:36;;;;;;;4.15;4.05;;;;;;;27.74;38.89;96671.84;5064505;28;20045;-66
2023/05/24 11:31:08;;;;;;;3.80;3.70;;;;;;;28.22;37.34;96680.16;5065320;28;20048;-65
2023/05/24 11:33:41;;;;;;;4.20;4.10;;;;;;;28.04;37.51;96664.84;5064374;28;20063;-65
2023/05/24 11:36:08;;;;;;;4.15;4.05;;;;;;;28.31;37.89;96669.41;5065932;28;20044;-64
2023/05/24 11:38:36;;;;;;;3.95;3.85;;;;;;;27.76;36.93;96561.13;5065711;28;20056;-65
2023/05/24 11:41:04;;;;;;;3.80;3.70;;;;;;;28.07;35.26;96663.84;5066146;28;20044;-64